x

Buoy F01 - West Penobscot Bay (44033) Wave Buoy

8:04 - Mon 2nd May 2016 All times are EDT. -4 hours from GMT.

  • Sig Wave height 3.3ft
  • Peak Period 6s
  • Wind
    16mph, 18mph gusts
  • Sea Temp 44°f
  • Ar Temp 44°f
  • Sea Pressure 1011.3mb
  • Buoy F01 - West Penobscot Bay
  • Buoy F01 - West Penobscot Bay

More Historic Weather Station data

Upgrade to MSW Pro to gain access to the past 30 days of data for over 8000 Wavebouys and Weather Stations around the globe.

Join Pro

Comparision Forecast

View Surf forecast
   
Seg 05/02 8:04 3.5ft 6s 16 18 mph 1011.3mb 44f 44f
7:04 3.5ft 6s 16 20 mph 1011.9mb 44f 44f
6:04 4ft 6s 13 20 mph 1011.3mb 43f 45f
5:04 3.5ft 8s 16 18 mph 1011mb 44f 44f
4:04 2.5ft 5s 16 20 mph 1012.8mb 43f 43f
3:04 3ft 8s 18 20 mph 1014.3mb 44f 43f
2:04 3ft 8s 11 13 mph 1016.2mb 44f 43f
1:04 2.5ft 8s 16 20 mph 1016.2mb 44f 45f
12:04 2.5ft 8s 13 18 mph 1017mb 44f 46f
11:04 2ft 8s 16 18 mph 1017.6mb 44f 46f
10:04 1.6ft 8s 9 13 mph 1018.7mb 43f 45f
9:04 2ft 8s 9 13 mph 1018.9mb 43f 45f
8:04 2ft 6s 9 11 mph 1019mb 43f 44f
7:04 1.6ft 11s 7 9 mph 1019.3mb 43f 43f
6:04 1.6ft 8s 9
mph
1019.1mb 44f 43f
5:04 2ft 11s 9 11 mph 1019.5mb 44f 44f
4:04 2.5ft 8s 4
mph
1020.1mb 44f 44f
3:04 2ft 11s 11 16 mph 1019.9mb 44f 44f
2:04 2.5ft 11s 4 7 mph 1020.5mb 44f 44f
1:04 2.5ft 8s 7 9 mph 1020.4mb 44f 44f
12:04 2.5ft 11s 9 11 mph 1020.8mb 44f 44f
Dom 05/01 11:04 2ft 11s 7 9 mph 1020.9mb 44f 44f
10:04 2ft 8s 7
mph
1021.9mb 44f 44f
9:04 2.5ft 11s 7
mph
1021.8mb 44f 44f
8:04 2ft 11s 4
mph
1022.2mb 44f 44f
7:04 2ft 8s 4
mph
1022.5mb 44f 44f
6:04 2.5ft 11s 2
mph
1022.7mb 45f 45f
5:04 3ft 11s 4 7 mph 1023mb 45f 45f
4:04 2.5ft 8s 7 9 mph 1023.5mb 45f 45f
3:04 2.5ft 8s 9 11 mph 1023.8mb 44f 45f
2:04 2.5ft 11s 9
mph
1024mb 45f 45f
1:04 1.6ft 8s 9
mph
1024.4mb 45f 45f
12:04 1.6ft 8s 11 13 mph 1024mb 44f 45f
11:04 1.3ft 8s 9 11 mph 1023.8mb 44f 45f
10:04 1.3ft 8s 7 9 mph 1024mb 44f 45f
9:04 1ft 8s 7 9 mph 1023.6mb 44f 44f
8:04 1ft 8s 7 9 mph 1023.7mb 44f 44f
7:04 1ft 8s 7 9 mph 1023.4mb 44f 44f
6:04 1ft 6s 4 7 mph 1023mb 44f 43f
5:04 1ft 6s 2
mph
1022.7mb 44f 43f
4:04 1ft 8s 2
mph
1022.9mb 44f 43f
3:04 1ft 8s 2
mph
1023mb 44f 43f
2:04 1ft 8s 2
mph
1023mb 44f 42f
1:04 1ft 8s 2
mph
1023.5mb 44f 43f
12:04 1ft 6s 4
mph
1023.7mb 44f 43f
Sáb 04/30 11:04 0.7ft  -  9
mph
1023.3mb 44f 44f
10:04 1ft 8s 11
mph
1023.4mb 44f 44f
9:04 1ft 6s 7 9 mph 1023.1mb 44f 45f
8:04 1ft 3s 9 11 mph 1022.4mb 44f 45f
6:04 1ft 6s 13
mph
1021.7mb 45f 46f
5:04 1ft 8s 11 13 mph 1021.4mb 45f 46f
4:04 1ft 8s 11
mph
1021.4mb 45f 46f
3:04 1ft 8s 11 13 mph 1021.4mb 45f 46f
2:04 1.3ft 8s 9
mph
1021.9mb 45f 45f
1:04 1ft 8s 11
mph
1022.2mb 45f 44f
12:04 1ft 8s 9 11 mph 1023mb 45f 44f
11:04 1.3ft 5s 4 7 mph 1023.9mb 45f 44f
10:04 1ft 5s 2
mph
1023.2mb 44f 44f
9:04 1ft 6s 4
mph
1023mb 44f 42f
8:04 1ft 8s 2 4 mph 1022.9mb 44f 45f
7:04 1.3ft 6s 9
mph
1021.9mb 43f 42f
6:04 1ft 8s 2
mph
1021.4mb 43f 42f
5:04 1.3ft 6s 4
mph
1020.9mb 43f 41f
4:04 1.3ft 6s 4
mph
1020.8mb 43f 41f
3:04 1.3ft 8s 4 7 mph 1021mb 43f 41f
2:04 1.3ft 8s 4
mph
1021mb 43f 41f
1:04 1.3ft 8s 4 7 mph 1020.9mb 43f 41f
12:04 1.3ft 8s 7 9 mph 1020.8mb 43f 42f
Sex 04/29 11:04 1.3ft 8s 9 11 mph 1020.2mb 44f 43f
10:04 1.3ft 8s 9 11 mph 1020.2mb 43f 43f
9:04 1.3ft 3s 9 11 mph 1019.9mb 43f 43f
8:04 1ft 4s 11 16 mph 1019.8mb 44f 43f
7:04 1.3ft 3s 16 18 mph 1019.4mb 44f 43f
6:04 1.3ft 3s 13 16 mph 1019.2mb 44f 43f
5:04 1.3ft 3s 13 18 mph 1019.1mb 44f 42f
4:04 1.3ft 3s 13 16 mph 1019.2mb 44f 42f
3:04 1ft 2s 13 16 mph 1020mb 44f 41f
2:04 1.3ft 8s 11 13 mph 1020.9mb 44f 40f
1:04 1.3ft 8s 11 13 mph 1021.6mb 45f 40f
12:04 1.3ft 8s 11
mph
1022.4mb 44f 40f
11:04 1.3ft 11s 7
mph
1022.9mb 44f 39f
10:04 1ft 8s 4 7 mph 1023.1mb 44f 39f
9:04 1ft 5s 4
mph
1023.1mb 43f 40f
8:04 1ft 5s 7 11 mph 1022.7mb 43f 38f
7:04 1.3ft 6s 7 9 mph 1022.3mb 43f 37f
6:04 1ft 2s 11 13 mph 1021.6mb 43f 37f
5:04 1.6ft 8s 11 13 mph 1021.2mb 43f 37f
4:04 1.6ft 8s 13 16 mph 1020.9mb 43f 37f
3:04 1.6ft 8s 16 18 mph 1020.8mb 43f 38f
2:04 2ft 8s 13 16 mph 1020.7mb 43f 39f